createdAt,value
2022-12-06T00:00:07.786Z,83.17
2022-12-06T00:01:07.788Z,83.17
2022-12-06T00:02:07.836Z,83.27
2022-12-06T00:03:07.766Z,83.17
2022-12-06T00:04:07.759Z,82.96
2022-12-06T00:05:07.718Z,82.86
2022-12-06T00:06:07.727Z,82.96
2022-12-06T00:07:07.697Z,82.59
2022-12-06T00:08:07.740Z,82.89
2022-12-06T00:09:07.682Z,83.00
2022-12-06T00:10:07.695Z,83.00
2022-12-06T00:11:07.660Z,83.00
2022-12-06T00:12:07.645Z,82.96
2022-12-06T00:13:07.656Z,82.96
2022-12-06T00:14:07.625Z,82.75
2022-12-06T00:15:07.638Z,82.75
2022-12-06T00:16:07.688Z,82.96
2022-12-06T00:17:07.597Z,83.06
2022-12-06T00:18:07.578Z,82.79
2022-12-06T00:19:07.576Z,83.10
2022-12-06T00:20:07.555Z,83.00
2022-12-06T00:21:07.567Z,83.62
2022-12-06T00:22:07.555Z,83.41
2022-12-06T00:23:07.525Z,83.31
2022-12-06T00:24:07.567Z,82.89
2022-12-06T00:25:07.503Z,83.00
2022-12-06T00:26:07.517Z,82.75
2022-12-06T00:27:07.484Z,82.69
2022-12-06T00:28:07.465Z,83.00
2022-12-06T00:29:07.463Z,83.00
2022-12-06T00:30:07.453Z,82.89
2022-12-06T00:31:07.457Z,82.89
2022-12-06T00:32:07.612Z,82.89
2022-12-06T00:33:07.416Z,82.73
2022-12-06T00:34:07.415Z,83.20
2022-12-06T00:35:07.402Z,82.79
2022-12-06T00:36:07.385Z,82.69
2022-12-06T00:37:07.403Z,82.69
2022-12-06T00:38:07.421Z,82.48
2022-12-06T00:39:07.372Z,82.38
2022-12-06T00:40:07.345Z,82.48
2022-12-06T00:41:07.334Z,82.48
2022-12-06T00:42:07.315Z,82.79
2022-12-06T00:43:07.333Z,82.79
2022-12-06T00:44:07.301Z,82.38
2022-12-06T00:45:07.293Z,82.17
2022-12-06T00:46:07.321Z,82.17
2022-12-06T00:47:07.263Z,82.59
2022-12-06T00:48:07.315Z,82.83
2022-12-06T00:49:07.244Z,82.93
2022-12-06T00:50:07.236Z,82.69
2022-12-06T00:51:07.223Z,82.59
2022-12-06T00:52:07.215Z,82.69
2022-12-06T00:53:07.205Z,82.38
2022-12-06T00:54:07.215Z,82.48
2022-12-06T00:55:07.183Z,82.17
2022-12-06T00:56:07.192Z,82.38
2022-12-06T00:57:07.162Z,82.59
2022-12-06T00:58:07.151Z,82.69
2022-12-06T00:59:07.162Z,82.59
2022-12-06T01:00:07.128Z,81.96
2022-12-06T01:01:07.139Z,82.07
2022-12-06T01:02:07.111Z,81.96
2022-12-06T01:03:07.152Z,81.86
2022-12-06T01:04:07.097Z,81.76
2022-12-06T01:05:07.093Z,82.00
2022-12-06T01:06:07.063Z,81.96
2022-12-06T01:07:07.053Z,82.07
2022-12-06T01:08:07.088Z,81.66
2022-12-06T01:09:07.032Z,81.80
2022-12-06T01:10:07.044Z,81.90
2022-12-06T01:11:07.034Z,81.80
2022-12-06T01:12:07.004Z,81.80
2022-12-06T01:13:06.992Z,81.76
2022-12-06T01:14:06.975Z,81.70
2022-12-06T01:15:06.961Z,81.90
2022-12-06T01:16:06.971Z,82.00
2022-12-06T01:17:06.969Z,81.70
2022-12-06T01:18:06.931Z,81.70
2022-12-06T01:19:06.922Z,81.59
2022-12-06T01:20:06.911Z,81.80
2022-12-06T01:21:06.931Z,81.70
2022-12-06T01:22:06.892Z,82.00
2022-12-06T01:23:06.881Z,82.04
2022-12-06T01:24:06.873Z,82.42
2022-12-06T01:25:06.861Z,82.42
2022-12-06T01:26:06.841Z,82.10
2022-12-06T01:27:06.911Z,81.90
2022-12-06T01:28:06.822Z,81.70
2022-12-06T01:29:06.821Z,81.38
2022-12-06T01:30:06.827Z,81.45
2022-12-06T01:31:06.876Z,81.18
2022-12-06T01:32:06.801Z,81.24
2022-12-06T01:33:06.799Z,81.07
2022-12-06T01:34:06.771Z,81.49
2022-12-06T01:35:06.750Z,81.28
2022-12-06T01:36:06.743Z,81.59
2022-12-06T01:37:06.739Z,81.49
2022-12-06T01:38:06.718Z,81.49
2022-12-06T01:39:07.090Z,81.80
2022-12-06T01:40:06.700Z,81.66
2022-12-06T01:41:06.691Z,81.45
2022-12-06T01:42:06.678Z,81.49
2022-12-06T01:43:06.673Z,81.38
2022-12-06T01:44:06.660Z,81.49
2022-12-06T01:45:06.669Z,81.66
2022-12-06T01:46:06.650Z,81.35
2022-12-06T01:47:06.629Z,81.24
2022-12-06T01:48:06.609Z,81.04
2022-12-06T01:49:06.609Z,81.14
2022-12-06T01:50:06.593Z,81.38
2022-12-06T01:51:06.612Z,81.49
2022-12-06T01:52:06.570Z,81.45
2022-12-06T01:53:06.559Z,81.38
2022-12-06T01:54:06.560Z,81.14
2022-12-06T01:55:06.538Z,81.07
2022-12-06T01:56:06.529Z,80.97
2022-12-06T01:57:06.548Z,80.97
2022-12-06T01:58:06.511Z,80.76
2022-12-06T01:59:06.495Z,80.76
2022-12-06T02:00:06.479Z,81.18
2022-12-06T02:01:06.543Z,80.87
2022-12-06T02:02:06.518Z,80.87
2022-12-06T02:03:06.544Z,80.87
2022-12-06T02:04:06.984Z,80.97
2022-12-06T02:05:06.428Z,80.97
2022-12-06T02:06:06.419Z,81.18
2022-12-06T02:07:06.408Z,80.97
2022-12-06T02:08:06.461Z,80.97
2022-12-06T02:09:06.408Z,80.66
2022-12-06T02:10:06.368Z,80.56
2022-12-06T02:11:06.381Z,80.66
2022-12-06T02:12:06.352Z,80.76
2022-12-06T02:13:06.347Z,80.66
2022-12-06T02:14:06.341Z,80.76
2022-12-06T02:15:06.346Z,80.66
2022-12-06T02:16:06.305Z,80.76
2022-12-06T02:17:06.323Z,80.76
2022-12-06T02:18:06.289Z,80.66
2022-12-06T02:19:06.288Z,80.66
2022-12-06T02:20:06.258Z,80.87
2022-12-06T02:21:06.285Z,80.76
2022-12-06T02:22:06.248Z,80.46
2022-12-06T02:23:06.238Z,80.46
2022-12-06T02:24:06.249Z,80.46
2022-12-06T02:25:06.289Z,80.46
2022-12-06T02:26:06.234Z,80.35
2022-12-06T02:27:06.237Z,79.94
2022-12-06T02:28:06.175Z,79.97
2022-12-06T02:29:06.176Z,79.94
2022-12-06T02:30:06.156Z,79.66
2022-12-06T02:31:06.242Z,80.08
2022-12-06T02:32:06.147Z,80.46
2022-12-06T02:33:06.166Z,80.35
2022-12-06T02:34:06.106Z,79.94
2022-12-06T02:35:06.096Z,79.87
2022-12-06T02:36:06.091Z,80.18
2022-12-06T02:37:06.087Z,80.04
2022-12-06T02:38:08.832Z,79.94
2022-12-06T02:39:07.074Z,80.08
2022-12-06T02:40:06.045Z,80.15
2022-12-06T02:41:06.037Z,79.94
2022-12-06T02:42:06.018Z,79.73
2022-12-06T02:43:06.007Z,79.52
2022-12-06T02:44:06.026Z,79.52
2022-12-06T02:45:05.988Z,79.73
2022-12-06T02:46:06.028Z,79.63
2022-12-06T02:47:05.966Z,79.63
2022-12-06T02:48:05.955Z,79.52
2022-12-06T02:49:05.947Z,79.56
2022-12-06T02:50:05.947Z,79.77
2022-12-06T02:51:05.916Z,79.63
2022-12-06T02:52:05.936Z,79.56
2022-12-06T02:53:05.910Z,79.87
2022-12-06T02:54:05.895Z,79.87
2022-12-06T02:55:05.895Z,79.52
2022-12-06T02:56:05.866Z,79.73
2022-12-06T02:57:05.854Z,79.52
2022-12-06T02:58:05.848Z,79.25
2022-12-06T02:59:05.834Z,79.66
2022-12-06T03:00:05.826Z,79.66
2022-12-06T03:01:05.864Z,79.56
2022-12-06T03:02:05.873Z,79.77
2022-12-06T03:03:05.862Z,79.56
2022-12-06T03:04:05.783Z,79.80
2022-12-06T03:05:05.771Z,80.53
2022-12-06T03:06:05.784Z,80.43
2022-12-06T03:07:05.745Z,80.18
2022-12-06T03:08:05.804Z,79.91
2022-12-06T03:09:05.723Z,79.97
2022-12-06T03:10:05.716Z,80.01
2022-12-06T03:11:05.714Z,79.91
2022-12-06T03:12:05.726Z,79.80
2022-12-06T03:13:05.682Z,80.01
2022-12-06T03:14:05.673Z,80.01
2022-12-06T03:15:05.656Z,80.43
2022-12-06T03:16:05.706Z,80.11
2022-12-06T03:17:05.635Z,80.11
2022-12-06T03:18:05.642Z,80.01
2022-12-06T03:19:05.614Z,79.87
2022-12-06T03:20:05.615Z,79.87
2022-12-06T03:21:05.592Z,79.77
2022-12-06T03:22:05.584Z,79.70
2022-12-06T03:23:05.595Z,79.91
2022-12-06T03:24:05.563Z,79.87
2022-12-06T03:25:05.564Z,79.56
2022-12-06T03:26:05.541Z,79.49
2022-12-06T03:27:05.525Z,79.80
2022-12-06T03:28:05.512Z,80.01
2022-12-06T03:29:05.523Z,79.97
2022-12-06T03:30:05.512Z,79.97
2022-12-06T03:31:05.563Z,79.66
2022-12-06T03:32:05.484Z,79.25
2022-12-06T03:33:05.464Z,79.36
2022-12-06T03:34:05.457Z,79.36
2022-12-06T03:35:05.460Z,79.49
2022-12-06T03:36:05.431Z,79.91
2022-12-06T03:37:05.422Z,79.60
2022-12-06T03:38:05.404Z,80.11
2022-12-06T03:39:05.393Z,80.01
2022-12-06T03:40:05.424Z,80.11
2022-12-06T03:41:05.369Z,79.91
2022-12-06T03:42:05.371Z,80.01
2022-12-06T03:43:05.356Z,79.97
2022-12-06T03:44:05.341Z,79.87
2022-12-06T03:45:05.324Z,79.66
2022-12-06T03:46:05.514Z,79.56
2022-12-06T03:47:05.334Z,79.66
2022-12-06T03:48:05.302Z,79.87
2022-12-06T03:49:05.282Z,79.73
2022-12-06T03:50:05.273Z,79.52
2022-12-06T03:51:05.261Z,79.42
2022-12-06T03:52:05.272Z,79.36
2022-12-06T03:53:05.242Z,79.66
2022-12-06T03:54:05.233Z,79.66
2022-12-06T03:55:05.220Z,79.87
2022-12-06T03:56:05.216Z,79.56
2022-12-06T03:57:05.212Z,79.77
2022-12-06T03:58:05.197Z,79.66
2022-12-06T03:59:05.180Z,80.18
2022-12-06T04:00:05.173Z,79.97
2022-12-06T04:01:05.150Z,79.87
2022-12-06T04:02:05.220Z,79.77
2022-12-06T04:03:05.150Z,79.77
2022-12-06T04:04:05.130Z,79.66
2022-12-06T04:05:05.114Z,79.66
2022-12-06T04:06:05.105Z,79.46
2022-12-06T04:07:05.081Z,79.56
2022-12-06T04:08:05.183Z,79.77
2022-12-06T04:09:05.082Z,79.87
2022-12-06T04:10:05.058Z,80.08
2022-12-06T04:11:05.039Z,79.87
2022-12-06T04:12:05.038Z,79.97
2022-12-06T04:13:05.021Z,79.63
2022-12-06T04:14:05.030Z,79.56
2022-12-06T04:15:05.002Z,79.66
2022-12-06T04:16:05.019Z,79.77
2022-12-06T04:17:04.978Z,79.87
2022-12-06T04:18:04.974Z,79.77
2022-12-06T04:19:04.954Z,80.08
2022-12-06T04:20:05.170Z,79.97
2022-12-06T04:21:04.930Z,80.11
2022-12-06T04:22:04.929Z,80.53
2022-12-06T04:23:04.909Z,80.22
2022-12-06T04:24:04.908Z,80.63
2022-12-06T04:25:04.887Z,80.22
2022-12-06T04:26:04.924Z,80.32
2022-12-06T04:27:04.867Z,80.74
2022-12-06T04:28:04.857Z,80.84
2022-12-06T04:29:04.851Z,80.63
2022-12-06T04:30:04.840Z,80.43
2022-12-06T04:31:04.848Z,80.39
2022-12-06T04:32:04.927Z,80.29
2022-12-06T04:33:04.800Z,80.29
2022-12-06T04:34:04.797Z,80.29
2022-12-06T04:35:04.778Z,80.49
2022-12-06T04:36:04.788Z,80.29
2022-12-06T04:37:04.776Z,80.49
2022-12-06T04:38:04.767Z,80.39
2022-12-06T04:39:04.774Z,80.18
2022-12-06T04:40:04.739Z,80.18
2022-12-06T04:41:04.707Z,80.18
2022-12-06T04:42:04.699Z,80.53
2022-12-06T04:43:04.706Z,80.43
2022-12-06T04:44:04.694Z,80.53
2022-12-06T04:45:04.668Z,80.63
2022-12-06T04:46:04.671Z,80.84
2022-12-06T04:47:04.739Z,80.94
2022-12-06T04:48:04.667Z,80.53
2022-12-06T04:49:04.628Z,80.74
2022-12-06T04:50:04.631Z,81.25
2022-12-06T04:51:04.605Z,81.46
2022-12-06T04:52:04.600Z,81.25
2022-12-06T04:53:04.579Z,81.15
2022-12-06T04:54:04.632Z,81.05
2022-12-06T04:55:04.558Z,81.25
2022-12-06T04:56:04.558Z,80.74
2022-12-06T04:57:04.535Z,81.15
2022-12-06T04:58:04.534Z,81.35
2022-12-06T04:59:04.519Z,81.46
2022-12-06T05:00:04.550Z,81.46
2022-12-06T05:01:04.543Z,81.15
2022-12-06T05:02:04.486Z,81.35
2022-12-06T05:03:04.475Z,81.15
2022-12-06T05:04:04.525Z,81.11
2022-12-06T05:05:04.455Z,80.94
2022-12-06T05:06:04.466Z,80.80
2022-12-06T05:07:04.426Z,80.70
2022-12-06T05:08:04.526Z,80.60
2022-12-06T05:09:04.405Z,80.39
2022-12-06T05:10:04.405Z,80.39
2022-12-06T05:11:04.389Z,80.49
2022-12-06T05:12:04.394Z,80.70
2022-12-06T05:13:04.365Z,80.70
2022-12-06T05:14:04.357Z,80.49
2022-12-06T05:15:04.348Z,80.49
2022-12-06T05:16:04.375Z,80.49
2022-12-06T05:17:04.346Z,80.53
2022-12-06T05:18:04.313Z,81.70
2022-12-06T05:19:04.305Z,82.64
2022-12-06T05:20:04.293Z,82.64
2022-12-06T05:21:04.273Z,82.60
2022-12-06T05:22:04.279Z,82.29
2022-12-06T05:23:04.275Z,81.87
2022-12-06T05:24:04.253Z,81.63
2022-12-06T05:25:04.235Z,81.42
2022-12-06T05:26:04.225Z,81.52
2022-12-06T05:27:04.223Z,81.32
2022-12-06T05:28:04.203Z,81.42
2022-12-06T05:29:04.213Z,81.52
2022-12-06T05:30:04.192Z,81.52
2022-12-06T05:31:04.217Z,81.42
2022-12-06T05:32:04.238Z,81.32
2022-12-06T05:33:04.152Z,81.42
2022-12-06T05:34:04.155Z,81.42
2022-12-06T05:35:04.142Z,81.63
2022-12-06T05:36:04.117Z,81.63
2022-12-06T05:37:04.108Z,81.32
2022-12-06T05:38:04.093Z,81.77
2022-12-06T05:39:04.083Z,81.63
2022-12-06T05:40:04.219Z,81.63
2022-12-06T05:41:04.064Z,81.42
2022-12-06T05:42:04.053Z,81.42
2022-12-06T05:43:04.042Z,81.32
2022-12-06T05:44:04.035Z,81.42
2022-12-06T05:45:04.022Z,81.42
2022-12-06T05:46:04.088Z,81.21
2022-12-06T05:47:03.993Z,81.32
2022-12-06T05:48:03.993Z,81.21
2022-12-06T05:49:03.971Z,81.11
2022-12-06T05:50:03.971Z,81.11
2022-12-06T05:51:03.955Z,81.11
2022-12-06T05:52:04.430Z,81.11
2022-12-06T05:53:03.939Z,81.21
2022-12-06T05:54:03.921Z,81.32
2022-12-06T05:55:03.911Z,81.32
2022-12-06T05:56:03.901Z,81.32
2022-12-06T05:57:03.912Z,81.21
2022-12-06T05:58:03.886Z,81.01
2022-12-06T05:59:03.871Z,81.32
2022-12-06T06:00:03.860Z,81.21
2022-12-06T06:01:03.841Z,81.21
2022-12-06T06:02:03.955Z,81.42
2022-12-06T06:03:04.003Z,81.21
2022-12-06T06:04:03.814Z,81.25
2022-12-06T06:05:03.803Z,81.21
2022-12-06T06:06:03.803Z,81.01
2022-12-06T06:07:03.772Z,80.80
2022-12-06T06:08:03.889Z,81.11
2022-12-06T06:09:03.756Z,81.32
2022-12-06T06:10:03.748Z,81.05
2022-12-06T06:11:03.730Z,81.25
2022-12-06T06:12:06.899Z,80.94
2022-12-06T06:13:04.749Z,81.05
2022-12-06T06:14:03.710Z,81.46
2022-12-06T06:15:03.690Z,81.46
2022-12-06T06:16:03.710Z,81.67
2022-12-06T06:17:03.728Z,81.77
2022-12-06T06:18:03.663Z,81.87
2022-12-06T06:19:03.663Z,81.15
2022-12-06T06:20:03.884Z,81.21
2022-12-06T06:21:03.638Z,81.32
2022-12-06T06:22:03.625Z,81.11
2022-12-06T06:23:03.601Z,80.80
2022-12-06T06:24:03.630Z,80.90
2022-12-06T06:25:03.600Z,80.90
2022-12-06T06:26:03.581Z,80.90
2022-12-06T06:27:03.561Z,80.87
2022-12-06T06:28:03.553Z,80.80
2022-12-06T06:29:03.540Z,80.76
2022-12-06T06:30:03.764Z,80.49
2022-12-06T06:31:03.523Z,80.90
2022-12-06T06:32:03.604Z,80.80
2022-12-06T06:33:03.490Z,81.01
2022-12-06T06:34:03.484Z,81.35
2022-12-06T06:35:03.477Z,81.32
2022-12-06T06:36:04.232Z,81.46
2022-12-06T06:37:03.449Z,81.56
2022-12-06T06:38:03.456Z,81.67
2022-12-06T06:39:03.438Z,81.63
2022-12-06T06:40:03.586Z,81.35
2022-12-06T06:41:03.398Z,81.46
2022-12-06T06:42:03.419Z,81.52
2022-12-06T06:43:03.388Z,81.01
2022-12-06T06:44:03.370Z,81.32
2022-12-06T06:45:04.253Z,81.01
2022-12-06T06:46:03.416Z,81.07
2022-12-06T06:47:03.391Z,80.87
2022-12-06T06:48:03.327Z,80.70
2022-12-06T06:49:03.317Z,80.97
2022-12-06T06:50:03.457Z,80.97
2022-12-06T06:51:03.303Z,81.11
2022-12-06T06:52:03.279Z,81.07
2022-12-06T06:53:03.294Z,80.87
2022-12-06T06:54:03.260Z,80.97
2022-12-06T06:55:03.248Z,80.80
2022-12-06T06:56:03.247Z,81.11
2022-12-06T06:57:03.236Z,81.07
2022-12-06T06:58:03.237Z,81.07
2022-12-06T06:59:03.206Z,81.18
2022-12-06T07:00:03.414Z,81.01
2022-12-06T07:01:03.268Z,81.21
2022-12-06T07:02:03.228Z,81.01
2022-12-06T07:03:03.156Z,81.01
2022-12-06T07:04:03.201Z,81.07
2022-12-06T07:05:03.147Z,80.97
2022-12-06T07:06:03.130Z,80.76
2022-12-06T07:07:03.117Z,80.56
2022-12-06T07:08:03.129Z,80.46
2022-12-06T07:09:03.123Z,80.46
2022-12-06T07:10:03.322Z,80.56
2022-12-06T07:11:03.067Z,80.87
2022-12-06T07:12:03.058Z,80.87
2022-12-06T07:13:03.056Z,80.66
2022-12-06T07:14:03.045Z,80.70
2022-12-06T07:15:03.065Z,80.87
2022-12-06T07:16:03.015Z,80.76
2022-12-06T07:17:03.039Z,80.76
2022-12-06T07:18:02.995Z,80.76
2022-12-06T07:19:07.684Z,80.66
2022-12-06T07:20:03.997Z,80.66
2022-12-06T07:21:02.974Z,80.70
2022-12-06T07:22:02.968Z,80.80
2022-12-06T07:23:02.947Z,81.28
2022-12-06T07:24:02.928Z,80.97
2022-12-06T07:25:02.936Z,80.76
2022-12-06T07:26:02.929Z,80.66
2022-12-06T07:27:02.924Z,80.66
2022-12-06T07:28:02.885Z,80.46
2022-12-06T07:29:02.875Z,80.56
2022-12-06T07:30:03.104Z,80.35
2022-12-06T07:31:02.971Z,80.25
2022-12-06T07:32:02.973Z,80.15
2022-12-06T07:33:02.834Z,80.15
2022-12-06T07:34:02.826Z,80.56
2022-12-06T07:35:02.823Z,80.66
2022-12-06T07:36:12.160Z,80.66
2022-12-06T07:37:03.808Z,80.56
2022-12-06T07:38:02.843Z,80.56
2022-12-06T07:39:02.775Z,80.49
2022-12-06T07:40:02.879Z,80.76
2022-12-06T07:41:05.044Z,80.76
2022-12-06T07:42:02.746Z,80.87
2022-12-06T07:43:02.804Z,80.56
2022-12-06T07:44:02.726Z,80.56
2022-12-06T07:45:03.146Z,80.35
2022-12-06T07:46:02.752Z,80.46
2022-12-06T07:47:02.693Z,80.35
2022-12-06T07:48:02.684Z,80.66
2022-12-06T07:49:02.686Z,80.76
2022-12-06T07:50:02.830Z,80.46
2022-12-06T07:51:02.646Z,80.76
2022-12-06T07:52:02.636Z,80.46
2022-12-06T07:53:02.746Z,80.46
2022-12-06T07:54:02.628Z,80.97
2022-12-06T07:55:02.619Z,80.46
2022-12-06T07:56:02.581Z,80.35
2022-12-06T07:57:02.574Z,80.56
2022-12-06T07:58:02.561Z,80.25
2022-12-06T07:59:55.979Z,79.83
2022-12-06T08:00:55.929Z,79.73
2022-12-06T08:01:55.982Z,80.15
2022-12-06T08:02:55.909Z,80.15
2022-12-06T08:03:56.009Z,80.04
2022-12-06T08:04:55.984Z,79.94
2022-12-06T08:05:55.898Z,80.04
2022-12-06T08:06:55.867Z,80.15
2022-12-06T08:07:55.919Z,79.94
2022-12-06T08:08:55.847Z,80.15
2022-12-06T08:09:55.849Z,80.15
2022-12-06T08:10:55.848Z,80.04
2022-12-06T08:11:55.818Z,79.80
2022-12-06T08:12:55.797Z,79.59
2022-12-06T08:13:55.797Z,79.38
2022-12-06T08:14:59.451Z,79.28
2022-12-06T08:15:55.849Z,79.18
2022-12-06T08:16:55.818Z,79.08
2022-12-06T08:17:55.749Z,78.77
2022-12-06T08:18:55.756Z,78.97
2022-12-06T08:19:55.729Z,78.87
2022-12-06T08:20:55.715Z,79.18
2022-12-06T08:21:55.721Z,79.38
2022-12-06T08:22:55.717Z,79.38
2022-12-06T08:23:55.689Z,79.49
2022-12-06T08:24:55.681Z,79.25
2022-12-06T08:25:55.667Z,78.97
2022-12-06T08:26:55.649Z,79.18
2022-12-06T08:27:55.649Z,79.18
2022-12-06T08:28:55.647Z,79.04
2022-12-06T08:29:55.625Z,78.94
2022-12-06T08:31:01.279Z,78.94
2022-12-06T08:31:56.606Z,78.83
2022-12-06T08:32:55.606Z,78.94
2022-12-06T08:33:55.586Z,78.94
2022-12-06T08:34:55.576Z,78.73
2022-12-06T08:35:55.555Z,78.63
2022-12-06T08:37:00.254Z,78.63
2022-12-06T08:37:56.527Z,78.31
2022-12-06T08:38:55.516Z,78.42
2022-12-06T08:39:55.507Z,78.56
2022-12-06T08:40:55.517Z,79.08
2022-12-06T08:41:55.485Z,79.38
2022-12-06T08:42:55.481Z,79.38
2022-12-06T08:43:55.469Z,79.28
2022-12-06T08:44:55.445Z,79.28
2022-12-06T08:45:55.491Z,78.97
2022-12-06T08:46:55.436Z,79.04
2022-12-06T08:47:55.429Z,78.63
2022-12-06T08:48:55.406Z,78.52
2022-12-06T08:49:55.398Z,78.63
2022-12-06T08:50:55.395Z,78.01
2022-12-06T08:51:55.420Z,78.97
2022-12-06T08:52:55.386Z,79.28
2022-12-06T08:53:55.354Z,79.08
2022-12-06T08:54:55.366Z,78.97
2022-12-06T08:56:02.070Z,79.08
2022-12-06T08:56:56.336Z,79.28
2022-12-06T08:57:55.305Z,79.08
2022-12-06T08:58:55.307Z,78.83
2022-12-06T08:59:55.302Z,78.73
2022-12-06T09:00:55.271Z,78.42
2022-12-06T09:01:55.296Z,78.42
2022-12-06T09:02:55.288Z,78.21
2022-12-06T09:03:55.247Z,78.38
2022-12-06T09:04:55.313Z,78.18
2022-12-06T09:05:55.214Z,77.97
2022-12-06T09:06:55.210Z,77.87
2022-12-06T09:07:55.255Z,78.08
2022-12-06T09:08:55.183Z,77.45
2022-12-06T09:09:55.165Z,77.28
2022-12-06T09:10:55.164Z,77.80
2022-12-06T09:11:55.146Z,77.59
2022-12-06T09:12:55.146Z,77.56
2022-12-06T09:13:55.143Z,77.35
2022-12-06T09:14:55.114Z,77.66
2022-12-06T09:15:55.186Z,77.73
2022-12-06T09:16:55.089Z,77.01
2022-12-06T09:17:55.103Z,76.90
2022-12-06T09:18:55.073Z,77.01
2022-12-06T09:19:55.093Z,76.73
2022-12-06T09:20:55.044Z,76.94
2022-12-06T09:21:55.024Z,77.11
2022-12-06T09:22:55.023Z,77.22
2022-12-06T09:23:55.003Z,77.18
2022-12-06T09:24:55.004Z,76.87
2022-12-06T09:25:55.004Z,76.25
2022-12-06T09:26:54.973Z,76.15
2022-12-06T09:27:54.952Z,76.15
2022-12-06T09:28:54.953Z,76.35
2022-12-06T09:29:54.938Z,76.04
2022-12-06T09:30:54.983Z,75.81
2022-12-06T09:31:54.942Z,75.43
2022-12-06T09:32:54.903Z,75.73
2022-12-06T09:33:54.882Z,75.63
2022-12-06T09:34:54.945Z,75.32
2022-12-06T09:35:54.862Z,75.56
2022-12-06T09:36:54.852Z,76.25
2022-12-06T09:37:54.852Z,75.94
2022-12-06T09:38:54.833Z,75.84
2022-12-06T09:39:54.822Z,75.60
2022-12-06T09:40:54.802Z,75.60
2022-12-06T09:41:54.814Z,75.49
2022-12-06T09:42:54.810Z,75.49
2022-12-06T09:43:54.771Z,75.60
2022-12-06T09:44:54.776Z,74.98
2022-12-06T09:45:54.742Z,75.18
2022-12-06T09:46:54.767Z,75.29
2022-12-06T09:47:54.754Z,75.49
2022-12-06T09:48:54.741Z,75.05
2022-12-06T09:49:54.745Z,74.95
2022-12-06T09:50:54.712Z,74.43
2022-12-06T09:51:54.692Z,75.15
2022-12-06T09:52:54.683Z,74.95
2022-12-06T09:53:54.653Z,74.84
2022-12-06T09:54:59.927Z,74.84
2022-12-06T09:55:55.631Z,74.91
2022-12-06T09:56:54.630Z,74.40
2022-12-06T09:57:54.605Z,74.19
2022-12-06T09:58:54.605Z,74.19
2022-12-06T09:59:54.611Z,73.98
2022-12-06T10:00:54.597Z,73.47
2022-12-06T10:01:54.665Z,74.08
2022-12-06T10:02:54.626Z,74.63
2022-12-06T10:03:54.542Z,74.19
2022-12-06T10:04:54.531Z,74.19
2022-12-06T10:05:54.579Z,74.40
2022-12-06T10:06:54.520Z,74.50
2022-12-06T10:07:54.560Z,74.70
2022-12-06T10:08:54.644Z,74.70
2022-12-06T10:09:54.471Z,74.70
2022-12-06T10:10:54.489Z,74.50
2022-12-06T10:11:54.450Z,74.15
2022-12-06T10:12:54.440Z,74.08
2022-12-06T10:13:54.431Z,74.19
2022-12-06T10:14:54.420Z,74.08
2022-12-06T10:15:54.488Z,73.68
2022-12-06T10:16:54.442Z,73.40
2022-12-06T10:17:54.416Z,74.95
2022-12-06T10:18:54.380Z,75.22
2022-12-06T10:19:54.359Z,75.39
2022-12-06T10:20:54.349Z,73.98
2022-12-06T10:21:54.339Z,74.05
2022-12-06T10:22:54.351Z,73.85
2022-12-06T10:24:00.129Z,73.54
2022-12-06T10:24:55.304Z,73.74
2022-12-06T10:25:54.289Z,74.05
2022-12-06T10:26:54.280Z,73.91
2022-12-06T10:27:54.259Z,73.50
2022-12-06T10:28:54.281Z,73.50
2022-12-06T10:29:54.240Z,72.78
2022-12-06T10:30:54.288Z,72.81
2022-12-06T10:31:54.330Z,73.64
2022-12-06T10:32:54.209Z,74.15
2022-12-06T10:33:54.199Z,73.81
2022-12-06T10:34:54.208Z,73.09
2022-12-06T10:35:54.169Z,72.61
2022-12-06T10:36:54.169Z,73.57
2022-12-06T10:37:54.160Z,73.88
2022-12-06T10:38:54.159Z,73.85
2022-12-06T10:39:54.154Z,73.88
2022-12-06T10:40:54.131Z,74.15
2022-12-06T10:41:54.111Z,73.95
2022-12-06T10:42:54.110Z,74.02
2022-12-06T10:43:54.089Z,73.09
2022-12-06T10:44:54.079Z,72.92
2022-12-06T10:45:54.079Z,73.68
2022-12-06T10:46:54.104Z,74.29
2022-12-06T10:47:54.047Z,75.04
2022-12-06T10:48:54.049Z,73.71
2022-12-06T10:49:54.022Z,73.09
2022-12-06T10:50:54.049Z,73.36
2022-12-06T10:51:53.999Z,72.96
2022-12-06T10:52:57.297Z,72.51
2022-12-06T10:53:54.976Z,71.48
2022-12-06T10:54:53.977Z,71.24
2022-12-06T10:55:53.959Z,72.51
2022-12-06T10:56:53.965Z,73.64
2022-12-06T10:57:53.929Z,73.13
2022-12-06T10:58:53.938Z,73.74
2022-12-06T10:59:53.908Z,73.40
2022-12-06T11:00:53.972Z,73.30
2022-12-06T11:01:53.920Z,73.61
2022-12-06T11:02:53.901Z,73.30
2022-12-06T11:03:53.869Z,72.85
2022-12-06T11:04:53.849Z,72.75
2022-12-06T11:05:53.843Z,72.61
2022-12-06T11:06:55.137Z,72.10
2022-12-06T11:07:53.910Z,71.89
2022-12-06T11:08:53.808Z,72.06
2022-12-06T11:09:53.798Z,73.02
2022-12-06T11:10:53.789Z,73.30
2022-12-06T11:11:53.778Z,73.50
2022-12-06T11:12:53.768Z,72.27
2022-12-06T11:13:53.768Z,72.06
2022-12-06T11:14:53.747Z,72.51
2022-12-06T11:15:53.844Z,72.06
2022-12-06T11:16:53.718Z,72.47
2022-12-06T11:17:58.027Z,72.06
2022-12-06T11:18:54.729Z,72.17
2022-12-06T11:19:53.678Z,72.47
2022-12-06T11:20:53.681Z,72.34
2022-12-06T11:21:53.820Z,72.13
2022-12-06T11:22:53.648Z,71.21
2022-12-06T11:23:53.638Z,71.62
2022-12-06T11:24:53.652Z,71.24
2022-12-06T11:25:53.616Z,71.72
2022-12-06T11:26:53.608Z,72.24
2022-12-06T11:27:53.599Z,72.00
2022-12-06T11:28:53.596Z,71.69
2022-12-06T11:29:53.586Z,71.11
2022-12-06T11:30:53.587Z,71.62
2022-12-06T11:31:53.630Z,71.31
2022-12-06T11:32:53.537Z,71.45
2022-12-06T11:33:53.527Z,71.83
2022-12-06T11:34:53.519Z,71.62
2022-12-06T11:35:53.538Z,71.72
2022-12-06T11:36:59.652Z,71.24
2022-12-06T11:37:54.478Z,71.51
2022-12-06T11:38:53.472Z,71.93
2022-12-06T11:39:53.457Z,71.08
2022-12-06T11:40:53.447Z,70.56
2022-12-06T11:41:53.458Z,70.32
2022-12-06T11:42:53.432Z,69.53
2022-12-06T11:43:53.415Z,69.98
2022-12-06T11:44:53.410Z,70.97
2022-12-06T11:45:53.400Z,70.28
2022-12-06T11:46:53.434Z,70.56
2022-12-06T11:47:53.401Z,70.76
2022-12-06T11:48:53.356Z,70.42
2022-12-06T11:49:53.347Z,70.01
2022-12-06T11:50:53.337Z,69.81
2022-12-06T11:51:53.335Z,69.74
2022-12-06T11:52:53.329Z,70.15
2022-12-06T11:53:53.319Z,70.94
2022-12-06T11:54:53.295Z,70.01
2022-12-06T11:55:53.275Z,70.12
2022-12-06T11:56:53.266Z,70.01
2022-12-06T11:57:53.267Z,69.19
2022-12-06T11:58:53.249Z,70.46
2022-12-06T11:59:53.247Z,70.56
2022-12-06T12:00:53.227Z,70.63
2022-12-06T12:01:53.299Z,69.43
2022-12-06T12:02:53.281Z,70.04
2022-12-06T12:03:53.187Z,69.56
2022-12-06T12:04:53.176Z,70.15
2022-12-06T12:05:53.177Z,70.04
2022-12-06T12:06:53.157Z,70.25
2022-12-06T12:07:53.198Z,70.12
2022-12-06T12:08:53.126Z,70.29
2022-12-06T12:09:53.126Z,69.98
2022-12-06T12:10:53.136Z,70.12
2022-12-06T12:11:53.097Z,70.87
2022-12-06T12:12:53.080Z,70.66
2022-12-06T12:13:53.079Z,70.46
2022-12-06T12:14:53.082Z,70.56
2022-12-06T12:15:53.049Z,70.76
2022-12-06T12:16:53.145Z,71.17
2022-12-06T12:17:53.077Z,70.36
2022-12-06T12:18:53.017Z,70.90
2022-12-06T12:19:53.065Z,71.08
2022-12-06T12:20:53.027Z,70.36
2022-12-06T12:21:54.623Z,70.97
2022-12-06T12:22:52.987Z,71.38
2022-12-06T12:23:52.958Z,70.87
2022-12-06T12:25:19.462Z,70.70
2022-12-06T12:25:53.936Z,71.11
2022-12-06T12:26:52.927Z,71.72
2022-12-06T12:27:52.936Z,72.44
2022-12-06T12:28:52.906Z,72.13
2022-12-06T12:29:52.895Z,71.51
2022-12-06T12:30:52.891Z,71.72
2022-12-06T12:31:52.950Z,72.27
2022-12-06T12:32:52.907Z,71.96
2022-12-06T12:33:52.864Z,72.06
2022-12-06T12:34:52.837Z,72.47
2022-12-06T12:35:52.828Z,72.68
2022-12-06T12:36:52.817Z,72.27
2022-12-06T12:37:52.797Z,72.47
2022-12-06T12:38:52.790Z,72.75
2022-12-06T12:39:52.796Z,72.85
2022-12-06T12:40:52.775Z,72.34
2022-12-06T12:41:52.756Z,72.55
2022-12-06T12:42:52.746Z,72.03
2022-12-06T12:44:07.665Z,71.62
2022-12-06T12:44:53.743Z,71.69
2022-12-06T12:45:53.248Z,71.69
2022-12-06T12:46:52.705Z,71.79
2022-12-06T12:47:52.686Z,71.28
2022-12-06T12:48:52.676Z,71.00
2022-12-06T12:49:52.665Z,70.87
2022-12-06T12:50:52.675Z,70.70
2022-12-06T12:51:52.635Z,71.41
2022-12-06T12:52:52.636Z,70.97